sensor_id;sensor_type;location;lat;lon;timestamp;P1;durP1;ratioP1;P2;durP2;ratioP2
46983;SDS011;34732;52.112;9.366;2024-02-14T09:51:08;3.25;;;3.00;;
46983;SDS011;34732;52.112;9.366;2024-02-14T09:54:38;3.25;;;3.25;;
46983;SDS011;34732;52.112;9.366;2024-02-14T09:58:00;3.00;;;2.50;;
46983;SDS011;34732;52.112;9.366;2024-02-14T10:01:28;3.50;;;2.75;;
46983;SDS011;34732;52.112;9.366;2024-02-14T10:04:54;3.00;;;2.25;;
46983;SDS011;34732;52.112;9.366;2024-02-14T10:08:18;1.50;;;1.50;;
46983;SDS011;34732;52.112;9.366;2024-02-14T10:11:46;2.75;;;2.75;;
46983;SDS011;34732;52.112;9.366;2024-02-14T10:15:10;3.25;;;3.00;;
46983;SDS011;34732;52.112;9.366;2024-02-14T10:18:34;2.00;;;2.00;;
46983;SDS011;34732;52.112;9.366;2024-02-14T10:22:00;2.00;;;2.00;;
46983;SDS011;34732;52.112;9.366;2024-02-14T10:25:26;3.00;;;2.25;;
46983;SDS011;34732;52.112;9.366;2024-02-14T10:28:49;3.00;;;3.00;;
46983;SDS011;34732;52.112;9.366;2024-02-14T10:32:14;2.00;;;2.00;;
46983;SDS011;34732;52.112;9.366;2024-02-14T10:35:40;2.50;;;2.00;;
46983;SDS011;34732;52.112;9.366;2024-02-14T10:39:02;2.00;;;2.00;;
46983;SDS011;34732;52.112;9.366;2024-02-14T10:42:32;2.00;;;2.00;;
46983;SDS011;34732;52.112;9.366;2024-02-14T10:45:56;3.00;;;2.75;;
46983;SDS011;34732;52.112;9.366;2024-02-14T10:49:22;3.00;;;2.00;;
46983;SDS011;34732;52.112;9.366;2024-02-14T10:52:48;2.00;;;2.00;;
46983;SDS011;34732;52.112;9.366;2024-02-14T10:56:09;2.25;;;2.25;;
46983;SDS011;34732;52.112;9.366;2024-02-14T10:59:35;2.00;;;2.00;;
46983;SDS011;34732;52.112;9.366;2024-02-14T11:03:10;0.50;;;0.50;;
46983;SDS011;34732;52.112;9.366;2024-02-14T11:06:47;1.00;;;1.00;;
46983;SDS011;34732;52.112;9.366;2024-02-14T11:10:09;1.75;;;1.25;;
46983;SDS011;34732;52.112;9.366;2024-02-14T11:13:36;2.50;;;2.00;;
46983;SDS011;34732;52.112;9.366;2024-02-14T11:16:58;1.50;;;1.50;;
46983;SDS011;34732;52.112;9.366;2024-02-14T11:20:31;2.00;;;1.00;;
46983;SDS011;34732;52.112;9.366;2024-02-14T11:23:53;1.50;;;1.50;;
46983;SDS011;34732;52.112;9.366;2024-02-14T11:27:14;2.75;;;2.00;;
46983;SDS011;34732;52.112;9.366;2024-02-14T11:30:41;2.00;;;2.00;;
46983;SDS011;34732;52.112;9.366;2024-02-14T11:34:08;2.00;;;2.00;;
46983;SDS011;34732;52.112;9.366;2024-02-14T11:37:31;3.00;;;3.00;;
46983;SDS011;34732;52.112;9.366;2024-02-14T11:40:55;2.00;;;2.00;;
46983;SDS011;34732;52.112;9.366;2024-02-14T11:44:20;3.75;;;3.50;;
46983;SDS011;34732;52.112;9.366;2024-02-14T11:47:42;3.75;;;3.75;;
46983;SDS011;34732;52.112;9.366;2024-02-14T11:51:04;4.25;;;4.25;;
46983;SDS011;34732;52.112;9.366;2024-02-14T11:54:28;4.00;;;4.00;;
46983;SDS011;34732;52.112;9.366;2024-02-14T11:57:54;4.00;;;4.00;;
46983;SDS011;34732;52.112;9.366;2024-02-14T12:01:20;3.00;;;2.00;;
46983;SDS011;34732;52.112;9.366;2024-02-14T12:04:47;2.75;;;2.75;;
46983;SDS011;34732;52.112;9.366;2024-02-14T12:08:14;4.00;;;3.50;;
46983;SDS011;34732;52.112;9.366;2024-02-14T12:11:39;2.00;;;2.00;;
46983;SDS011;34732;52.112;9.366;2024-02-14T12:15:09;3.00;;;2.25;;
46983;SDS011;34732;52.112;9.366;2024-02-14T12:18:35;2.25;;;2.25;;
46983;SDS011;34732;52.112;9.366;2024-02-14T12:21:59;2.00;;;2.00;;
46983;SDS011;34732;52.112;9.366;2024-02-14T12:25:22;2.75;;;2.75;;
46983;SDS011;34732;52.112;9.366;2024-02-14T12:28:45;3.00;;;3.00;;
46983;SDS011;34732;52.112;9.366;2024-02-14T12:32:15;2.75;;;2.75;;
46983;SDS011;34732;52.112;9.366;2024-02-14T12:35:37;2.00;;;1.50;;
46983;SDS011;34732;52.112;9.366;2024-02-14T12:39:07;2.50;;;2.50;;
46983;SDS011;34732;52.112;9.366;2024-02-14T12:42:33;2.00;;;2.00;;
46983;SDS011;34732;52.112;9.366;2024-02-14T12:45:59;2.75;;;2.50;;
46983;SDS011;34732;52.112;9.366;2024-02-14T12:49:20;3.00;;;3.00;;
46983;SDS011;34732;52.112;9.366;2024-02-14T12:52:44;2.00;;;2.00;;
46983;SDS011;34732;52.112;9.366;2024-02-14T12:56:11;3.00;;;2.50;;
46983;SDS011;34732;52.112;9.366;2024-02-14T12:59:35;2.00;;;2.00;;
46983;SDS011;34732;52.112;9.366;2024-02-14T13:02:56;1.75;;;1.75;;
46983;SDS011;34732;52.112;9.366;2024-02-14T13:06:20;3.75;;;3.00;;
46983;SDS011;34732;52.112;9.366;2024-02-14T13:09:46;3.00;;;3.00;;
46983;SDS011;34732;52.112;9.366;2024-02-14T13:17:26;1.50;;;1.00;;
46983;SDS011;34732;52.112;9.366;2024-02-14T13:20:50;2.00;;;1.75;;
46983;SDS011;34732;52.112;9.366;2024-02-14T13:24:18;2.00;;;2.00;;
46983;SDS011;34732;52.112;9.366;2024-02-14T13:27:44;1.00;;;1.00;;
46983;SDS011;34732;52.112;9.366;2024-02-14T13:31:08;0.75;;;0.50;;
46983;SDS011;34732;52.112;9.366;2024-02-14T13:34:31;1.00;;;1.00;;
46983;SDS011;34732;52.112;9.366;2024-02-14T13:37:57;2.00;;;2.00;;
46983;SDS011;34732;52.112;9.366;2024-02-14T13:41:20;1.25;;;1.25;;
46983;SDS011;34732;52.112;9.366;2024-02-14T13:44:42;1.75;;;1.75;;
46983;SDS011;34732;52.112;9.366;2024-02-14T13:48:10;4.25;;;2.75;;
46983;SDS011;34732;52.112;9.366;2024-02-14T13:51:34;3.00;;;2.50;;
46983;SDS011;34732;52.112;9.366;2024-02-14T13:55:03;1.50;;;1.50;;
46983;SDS011;34732;52.112;9.366;2024-02-14T13:58:25;3.50;;;3.00;;
46983;SDS011;34732;52.112;9.366;2024-02-14T14:01:49;6.75;;;6.75;;
46983;SDS011;34732;52.112;9.366;2024-02-14T14:05:15;4.00;;;4.00;;
46983;SDS011;34732;52.112;9.366;2024-02-14T14:08:36;4.50;;;4.50;;
46983;SDS011;34732;52.112;9.366;2024-02-14T14:12:02;4.25;;;4.25;;
46983;SDS011;34732;52.112;9.366;2024-02-14T14:15:30;6.50;;;6.50;;
46983;SDS011;34732;52.112;9.366;2024-02-14T14:18:56;4.75;;;4.75;;
46983;SDS011;34732;52.112;9.366;2024-02-14T14:22:24;4.75;;;4.75;;
46983;SDS011;34732;52.112;9.366;2024-02-14T14:25:54;5.50;;;5.50;;
46983;SDS011;34732;52.112;9.366;2024-02-14T14:29:18;5.25;;;5.00;;
46983;SDS011;34732;52.112;9.366;2024-02-14T14:32:41;5.00;;;5.00;;
46983;SDS011;34732;52.112;9.366;2024-02-14T14:36:05;5.00;;;5.00;;
46983;SDS011;34732;52.112;9.366;2024-02-14T14:39:29;8.50;;;6.50;;
46983;SDS011;34732;52.112;9.366;2024-02-14T14:42:56;5.00;;;5.00;;
46983;SDS011;34732;52.112;9.366;2024-02-14T14:46:17;4.75;;;4.00;;
46983;SDS011;34732;52.112;9.366;2024-02-14T14:49:41;4.75;;;4.00;;
46983;SDS011;34732;52.112;9.366;2024-02-14T14:53:03;4.00;;;4.00;;
46983;SDS011;34732;52.112;9.366;2024-02-14T14:56:26;6.75;;;6.50;;
46983;SDS011;34732;52.112;9.366;2024-02-14T14:59:50;4.50;;;4.00;;
46983;SDS011;34732;52.112;9.366;2024-02-14T15:03:14;3.75;;;3.75;;
46983;SDS011;34732;52.112;9.366;2024-02-14T15:06:35;6.75;;;4.25;;
46983;SDS011;34732;52.112;9.366;2024-02-14T15:09:59;4.40;;;4.00;;
46983;SDS011;34732;52.112;9.366;2024-02-14T15:13:22;5.75;;;5.75;;
46983;SDS011;34732;52.112;9.366;2024-02-14T15:19:14;7.25;;;6.50;;
46983;SDS011;34732;52.112;9.366;2024-02-14T15:22:38;8.00;;;7.50;;
46983;SDS011;34732;52.112;9.366;2024-02-14T15:26:04;7.00;;;7.00;;
46983;SDS011;34732;52.112;9.366;2024-02-14T15:29:32;10.00;;;9.50;;
46983;SDS011;34732;52.112;9.366;2024-02-14T15:33:14;6.75;;;6.00;;
46983;SDS011;34732;52.112;9.366;2024-02-14T15:36:48;4.75;;;4.25;;
46983;SDS011;34732;52.112;9.366;2024-02-14T15:40:09;7.25;;;6.50;;
46983;SDS011;34732;52.112;9.366;2024-02-14T15:43:45;8.00;;;7.00;;
46983;SDS011;34732;52.112;9.366;2024-02-14T15:47:06;7.50;;;7.00;;
46983;SDS011;34732;52.112;9.366;2024-02-14T15:50:34;8.00;;;7.50;;
46983;SDS011;34732;52.112;9.366;2024-02-14T15:54:00;8.00;;;8.00;;
46983;SDS011;34732;52.112;9.366;2024-02-14T15:57:26;6.75;;;6.75;;
46983;SDS011;34732;52.112;9.366;2024-02-14T16:00:47;7.75;;;7.00;;
46983;SDS011;34732;52.112;9.366;2024-02-14T16:04:09;10.33;;;9.67;;
46983;SDS011;34732;52.112;9.366;2024-02-14T16:07:32;9.75;;;7.00;;
46983;SDS011;34732;52.112;9.366;2024-02-14T16:10:56;6.00;;;6.00;;
46983;SDS011;34732;52.112;9.366;2024-02-14T16:14:20;7.25;;;5.75;;
46983;SDS011;34732;52.112;9.366;2024-02-14T16:17:41;5.75;;;5.25;;
46983;SDS011;34732;52.112;9.366;2024-02-14T17:04:38;7.67;;;7.33;;
46983;SDS011;34732;52.112;9.366;2024-02-14T17:08:06;5.75;;;5.25;;
46983;SDS011;34732;52.112;9.366;2024-02-14T17:11:27;6.00;;;6.00;;
46983;SDS011;34732;52.112;9.366;2024-02-14T17:14:51;11.25;;;8.25;;
46983;SDS011;34732;52.112;9.366;2024-02-14T17:18:14;7.50;;;7.50;;
46983;SDS011;34732;52.112;9.366;2024-02-14T17:21:38;7.25;;;7.25;;
46983;SDS011;34732;52.112;9.366;2024-02-14T17:24:59;6.75;;;6.75;;
46983;SDS011;34732;52.112;9.366;2024-02-14T18:02:45;4.33;;;4.00;;
46983;SDS011;34732;52.112;9.366;2024-02-14T18:06:06;7.25;;;7.25;;
46983;SDS011;34732;52.112;9.366;2024-02-14T18:09:29;7.50;;;5.00;;
46983;SDS011;34732;52.112;9.366;2024-02-14T18:12:52;8.00;;;8.00;;
46983;SDS011;34732;52.112;9.366;2024-02-14T18:16:16;9.00;;;7.67;;
46983;SDS011;34732;52.112;9.366;2024-02-14T18:19:40;7.33;;;7.00;;
46983;SDS011;34732;52.112;9.366;2024-02-14T18:23:05;7.00;;;6.75;;
46983;SDS011;34732;52.112;9.366;2024-02-14T18:26:31;8.75;;;8.25;;
46983;SDS011;34732;52.112;9.366;2024-02-14T18:29:58;5.75;;;5.50;;
46983;SDS011;34732;52.112;9.366;2024-02-14T18:33:22;5.25;;;4.75;;
46983;SDS011;34732;52.112;9.366;2024-02-14T18:36:49;6.50;;;6.25;;
46983;SDS011;34732;52.112;9.366;2024-02-14T18:40:14;8.00;;;6.25;;
46983;SDS011;34732;52.112;9.366;2024-02-14T18:43:42;6.50;;;6.50;;
46983;SDS011;34732;52.112;9.366;2024-02-14T18:47:03;9.00;;;7.00;;
46983;SDS011;34732;52.112;9.366;2024-02-14T18:50:27;3.00;;;3.00;;
46983;SDS011;34732;52.112;9.366;2024-02-14T18:53:53;5.75;;;5.25;;
46983;SDS011;34732;52.112;9.366;2024-02-14T18:57:19;7.00;;;6.50;;
46983;SDS011;34732;52.112;9.366;2024-02-14T19:00:43;6.00;;;6.00;;
46983;SDS011;34732;52.112;9.366;2024-02-14T19:04:12;8.00;;;7.50;;
46983;SDS011;34732;52.112;9.366;2024-02-14T19:07:40;7.00;;;7.00;;
46983;SDS011;34732;52.112;9.366;2024-02-14T19:11:04;7.50;;;7.00;;
46983;SDS011;34732;52.112;9.366;2024-02-14T19:14:28;5.75;;;5.50;;
46983;SDS011;34732;52.112;9.366;2024-02-14T19:17:50;6.00;;;5.75;;
46983;SDS011;34732;52.112;9.366;2024-02-14T19:21:14;7.00;;;7.00;;
46983;SDS011;34732;52.112;9.366;2024-02-14T19:24:38;8.75;;;8.25;;
46983;SDS011;34732;52.112;9.366;2024-02-14T19:28:00;7.00;;;7.00;;
46983;SDS011;34732;52.112;9.366;2024-02-14T19:31:22;9.50;;;8.25;;
46983;SDS011;34732;52.112;9.366;2024-02-14T19:34:43;13.25;;;11.75;;
46983;SDS011;34732;52.112;9.366;2024-02-14T19:38:07;7.00;;;7.00;;
46983;SDS011;34732;52.112;9.366;2024-02-14T19:41:31;9.00;;;8.75;;
46983;SDS011;34732;52.112;9.366;2024-02-14T19:44:56;10.75;;;9.25;;
46983;SDS011;34732;52.112;9.366;2024-02-14T19:48:22;13.75;;;12.50;;
46983;SDS011;34732;52.112;9.366;2024-02-14T19:51:51;10.75;;;9.25;;
46983;SDS011;34732;52.112;9.366;2024-02-14T19:55:13;10.00;;;8.75;;
46983;SDS011;34732;52.112;9.366;2024-02-14T19:58:39;10.50;;;9.25;;
46983;SDS011;34732;52.112;9.366;2024-02-14T20:02:01;12.00;;;10.50;;
46983;SDS011;34732;52.112;9.366;2024-02-14T20:05:23;10.50;;;9.75;;
